Stations météo

Publicité
Aix en Provence, France (7654): Température de l'air & dewpoint: 14.09.2019 06:00:00 - 20.09.2019 06:00:00 (CEST)Aix en Provence, France (7654): Vitesse du vent & gusts: 14.09.2019 06:00:00 - 20.09.2019 06:00:00 (CEST)Aix en Provence, France (7654): Direction du vent: 14.09.2019 06:00:00 - 20.09.2019 06:00:00 (CEST)Aix en Provence, France (7654): Quantités de précipitations: 14.09.2019 06:00:00 - 20.09.2019 06:00:00 (CEST)
Date & Time tt [°C] td [°C] ff [km/h] ff [knt] fx [km/h] fx [knt] dd rr [mm]
20.09.2019 06:00:00 - - - - - - - -
20.09.2019 05:00:00 17,3 15,1 0 0 4 2 N 0,0
20.09.2019 04:00:00 17,7 15,3 0 0 4 2 N 0,0
20.09.2019 03:00:00 18,4 15,5 0 0 2 1 N 0,0
20.09.2019 02:00:00 19,1 15,6 0 0 4 2 N -
20.09.2019 01:00:00 19,3 15,6 0 0 4 2 N 0,0
20.09.2019 00:00:00 19,4 15,9 0 0 4 2 N 0,0
19.09.2019 23:00:00 20,0 15,8 0 0 5 3 N 0,0
19.09.2019 22:00:00 20,8 15,3 0 0 8 4 N 0,0
19.09.2019 21:00:00 22,0 15,4 0 0 11 6 N 0,0
19.09.2019 20:00:00 23,7 14,4 5 3 13 7 S -
19.09.2019 19:00:00 25,6 12,4 8 4 15 8 SW 0,0
19.09.2019 18:00:00 27,2 13,2 9 5 18 10 WSW 0,0
19.09.2019 17:00:00 27,5 13,8 9 5 28 15 WSW 0,0
19.09.2019 16:00:00 27,8 14,8 13 7 24 13 W 0,0
19.09.2019 15:00:00 27,8 15,5 8 4 18 10 W 0,0
19.09.2019 14:00:00 27,3 16,3 8 4 18 10 W -
19.09.2019 13:00:00 26,7 17,2 8 4 21 11 WSW 0,0
19.09.2019 12:00:00 25,2 16,6 4 2 13 7 ESE 0,0
19.09.2019 11:00:00 23,8 17,1 2 1 11 6 S 0,0
19.09.2019 10:00:00 20,6 16,4 4 2 9 5 SSW 0,2
19.09.2019 09:00:00 18,2 16,4 4 2 9 5 S 0,0
19.09.2019 08:00:00 15,9 14,9 2 1 8 4 N -
19.09.2019 07:00:00 16,1 15,1 2 1 4 2 NE 0,0
19.09.2019 06:00:00 16,4 15,3 2 1 8 4 NW 0,0
19.09.2019 05:00:00 16,7 15,6 0 0 4 2 N 0,0
19.09.2019 04:00:00 17,2 15,9 2 1 5 3 NNW 0,0
19.09.2019 03:00:00 18,0 15,6 2 1 5 3 ESE 0,0
19.09.2019 02:00:00 19,0 16,4 0 0 9 5 N -
19.09.2019 01:00:00 19,0 15,3 2 1 9 5 E 0,0
19.09.2019 00:00:00 20,2 18,1 2 1 15 8 NW 0,0
18.09.2019 23:00:00 21,1 19,6 5 3 15 8 W 0,0
18.09.2019 22:00:00 20,9 19,2 5 3 11 6 W 0,0
18.09.2019 21:00:00 21,5 19,1 8 4 16 9 WNW 0,0
18.09.2019 20:00:00 22,7 18,9 4 2 8 4 WSW -
18.09.2019 19:00:00 23,8 19,1 8 4 16 9 WSW 0,0
18.09.2019 18:00:00 25,3 19,2 9 5 22 12 WSW 0,0
18.09.2019 17:00:00 27,3 19,4 9 5 21 11 WSW 0,0
18.09.2019 16:00:00 26,2 18,6 8 4 16 9 SW 0,0
18.09.2019 15:00:00 25,9 18,1 9 5 22 12 S 0,0
18.09.2019 14:00:00 27,4 18,1 8 4 18 10 SSW -
18.09.2019 13:00:00 26,1 17,7 4 2 11 6 WSW 0,0
18.09.2019 12:00:00 24,9 17,4 4 2 13 7 W 0,0
18.09.2019 11:00:00 23,5 17,7 4 2 15 8 SE 0,0
18.09.2019 10:00:00 20,7 17,1 5 3 13 7 SE 0,0
18.09.2019 09:00:00 18,2 16,7 5 3 13 7 ENE 0,0
18.09.2019 08:00:00 17,4 15,9 4 2 9 5 ESE -
18.09.2019 07:00:00 16,9 15,2 2 1 11 6 S 0,0
18.09.2019 06:00:00 17,1 15,3 2 1 9 5 S 0,0
18.09.2019 05:00:00 17,1 16,0 0 0 4 2 N 0,0
18.09.2019 04:00:00 17,6 16,3 0 0 4 2 N 0,0
18.09.2019 03:00:00 18,1 16,8 0 0 4 2 N 0,0
18.09.2019 02:00:00 18,6 16,6 0 0 5 3 N -
18.09.2019 01:00:00 18,7 16,8 0 0 5 3 N 0,0
18.09.2019 00:00:00 19,1 17,1 0 0 4 2 N 0,0
17.09.2019 23:00:00 20,0 17,4 0 0 5 3 N 0,0
17.09.2019 22:00:00 21,1 17,9 0 0 8 4 N 0,0
17.09.2019 21:00:00 22,2 16,7 2 1 11 6 WSW 0,0
17.09.2019 20:00:00 24,0 15,2 5 3 15 8 WSW -
17.09.2019 19:00:00 26,3 15,0 8 4 18 10 SSW 0,0
17.09.2019 18:00:00 28,3 15,9 11 6 22 12 SSW 0,0
17.09.2019 17:00:00 30,4 16,8 11 6 28 15 SSW 0,0
17.09.2019 16:00:00 31,2 16,0 11 6 22 12 WSW 0,0
17.09.2019 15:00:00 30,4 14,9 9 5 18 10 SW 0,0
17.09.2019 14:00:00 29,7 14,7 13 7 26 14 SSW -
17.09.2019 13:00:00 28,6 15,2 5 3 16 9 WSW 0,0
17.09.2019 12:00:00 26,9 15,3 4 2 13 7 WSW 0,0
17.09.2019 11:00:00 25,0 13,9 4 2 9 5 W 0,0
17.09.2019 10:00:00 23,4 14,4 0 0 4 2 N 0,0
17.09.2019 09:00:00 19,8 13,7 0 0 2 1 N 0,0
17.09.2019 08:00:00 16,2 13,3 0 0 4 2 N -
17.09.2019 07:00:00 15,5 12,8 0 0 2 1 N 0,0
17.09.2019 06:00:00 15,7 13,2 0 0 2 1 N 0,0
17.09.2019 05:00:00 15,9 13,4 0 0 2 1 N 0,0
17.09.2019 04:00:00 16,5 13,8 0 0 4 2 N 0,0
17.09.2019 03:00:00 16,8 14,4 0 0 4 2 N 0,0
17.09.2019 02:00:00 17,3 14,8 0 0 0 0 N -
17.09.2019 01:00:00 17,8 14,9 0 0 4 2 N 0,0
17.09.2019 00:00:00 18,4 15,3 0 0 4 2 N 0,0
16.09.2019 23:00:00 19,3 15,4 0 0 4 2 N 0,0
16.09.2019 22:00:00 20,3 15,7 2 1 4 2 NNE 0,0
16.09.2019 21:00:00 21,2 15,5 0 0 8 4 N 0,0
16.09.2019 20:00:00 22,9 15,7 4 2 15 8 SSW -
16.09.2019 19:00:00 25,2 16,3 9 5 22 12 SSW 0,0
16.09.2019 18:00:00 27,1 17,6 11 6 22 12 SW 0,0
16.09.2019 17:00:00 28,2 17,7 13 7 34 18 SSW 0,0
16.09.2019 16:00:00 30,3 18,1 15 8 35 19 SSW 0,0
16.09.2019 15:00:00 32,4 14,1 9 5 21 11 W 0,0
16.09.2019 14:00:00 31,7 13,9 4 2 16 9 SSW -
16.09.2019 13:00:00 29,7 14,7 4 2 11 6 SSE 0,0
16.09.2019 12:00:00 28,3 14,9 4 2 11 6 WSW 0,0
16.09.2019 11:00:00 26,3 16,8 4 2 11 6 S 0,0
16.09.2019 10:00:00 24,0 17,0 2 1 5 3 S 0,0
16.09.2019 09:00:00 20,3 15,9 2 1 4 2 S 0,0
16.09.2019 08:00:00 17,7 15,5 0 0 4 2 N -
16.09.2019 07:00:00 17,4 15,6 0 0 4 2 N 0,0
16.09.2019 06:00:00 18,1 16,1 0 0 2 1 N 0,0
16.09.2019 05:00:00 19,2 16,1 0 0 4 2 N 0,0
16.09.2019 04:00:00 19,6 16,2 0 0 4 2 N 0,0
16.09.2019 03:00:00 19,8 16,1 0 0 4 2 N 0,0
16.09.2019 02:00:00 19,9 16,1 0 0 4 2 N -
16.09.2019 01:00:00 20,2 15,8 0 0 5 3 N 0,0
16.09.2019 00:00:00 20,3 15,7 2 1 5 3 NNW 0,0
15.09.2019 23:00:00 21,2 15,5 0 0 4 2 N 0,0
15.09.2019 22:00:00 23,0 16,1 0 0 8 4 N 0,0
15.09.2019 21:00:00 23,7 15,2 0 0 5 3 N 0,0
15.09.2019 20:00:00 24,2 15,7 2 1 8 4 N -
15.09.2019 19:00:00 25,1 16,5 4 2 22 12 W 0,0
15.09.2019 18:00:00 27,5 16,5 13 7 26 14 SSW 0,0
15.09.2019 17:00:00 30,1 15,4 11 6 24 13 SW 0,0
15.09.2019 16:00:00 30,5 14,6 11 6 26 14 SW 0,0
15.09.2019 15:00:00 31,7 13,5 4 2 15 8 ESE 0,0
15.09.2019 14:00:00 30,6 13,4 5 3 18 10 ENE -
15.09.2019 13:00:00 29,9 13,2 5 3 16 9 E 0,0
15.09.2019 12:00:00 28,7 13,4 8 4 18 10 ESE 0,0
15.09.2019 11:00:00 27,3 15,3 4 2 8 4 SSW 0,0
15.09.2019 10:00:00 23,4 13,8 4 2 13 7 ESE 0,0
15.09.2019 09:00:00 20,3 13,3 5 3 9 5 ESE 0,0
15.09.2019 08:00:00 15,6 14,0 0 0 4 2 N -
15.09.2019 07:00:00 15,6 13,6 2 1 5 3 NNE 0,0
15.09.2019 06:00:00 16,2 13,9 0 0 8 4 N 0,0
15.09.2019 05:00:00 16,6 14,2 0 0 4 2 N 0,0
15.09.2019 04:00:00 16,8 14,3 0 0 4 2 N 0,0
15.09.2019 03:00:00 17,4 15,0 0 0 4 2 N 0,0
15.09.2019 02:00:00 17,8 15,2 0 0 4 2 N -
15.09.2019 01:00:00 18,2 15,4 0 0 4 2 N 0,0
15.09.2019 00:00:00 19,0 15,7 0 0 4 2 N 0,0
14.09.2019 23:00:00 19,8 16,1 0 0 5 3 N 0,0
14.09.2019 22:00:00 21,3 16,0 2 1 5 3 NE 0,0
14.09.2019 21:00:00 22,8 15,9 2 1 13 7 NNW 0,0
14.09.2019 20:00:00 25,2 15,8 8 4 15 8 WSW -
14.09.2019 19:00:00 27,9 15,2 8 4 16 9 W 0,0
14.09.2019 18:00:00 28,9 14,7 8 4 16 9 WNW 0,0
14.09.2019 17:00:00 29,7 15,0 11 6 18 10 W 0,0
14.09.2019 16:00:00 29,2 14,2 8 4 18 10 W 0,0
14.09.2019 15:00:00 28,6 14,1 9 5 22 12 WSW 0,0
14.09.2019 14:00:00 30,4 11,4 8 4 18 10 E -
14.09.2019 13:00:00 29,7 12,2 9 5 22 12 SSE 0,0
14.09.2019 12:00:00 28,9 14,3 4 2 15 8 SSE 0,0
14.09.2019 11:00:00 27,0 14,7 8 4 15 8 NE 0,0
14.09.2019 10:00:00 23,5 13,7 4 2 8 4 SSE 0,0
14.09.2019 09:00:00 19,5 13,0 4 2 5 3 S 0,0
14.09.2019 08:00:00 15,8 13,1 0 0 4 2 N -
14.09.2019 07:00:00 15,1 12,8 0 0 2 1 N 0,0
14.09.2019 06:00:00 15,4 12,9 0 0 4 2 N 0,0

tt = Température de l'air
td = dewpoint
ff = Vitesse du vent
fx = gusts
dd = Direction du vent
rr = Quantités de précipitations

stations d'obs. à proximité